sensor_id;sensor_type;location;lat;lon;timestamp;P1;durP1;ratioP1;P2;durP2;ratioP2
52668;SDS011;59898;52.786;6.892;2023-10-08T00:02:58;5.82;;;1.98;;
52668;SDS011;59898;52.786;6.892;2023-10-08T00:06:19;2.95;;;1.63;;
52668;SDS011;59898;52.786;6.892;2023-10-08T00:09:41;3.13;;;2.03;;
52668;SDS011;59898;52.786;6.892;2023-10-08T00:13:01;1.85;;;1.60;;
52668;SDS011;59898;52.786;6.892;2023-10-08T00:16:22;3.40;;;1.58;;
52668;SDS011;59898;52.786;6.892;2023-10-08T00:19:43;3.83;;;1.80;;
52668;SDS011;59898;52.786;6.892;2023-10-08T00:23:04;2.50;;;1.67;;
52668;SDS011;59898;52.786;6.892;2023-10-08T00:26:28;2.92;;;1.92;;
52668;SDS011;59898;52.786;6.892;2023-10-08T00:29:51;2.30;;;1.77;;
52668;SDS011;59898;52.786;6.892;2023-10-08T00:33:12;2.42;;;1.67;;
52668;SDS011;59898;52.786;6.892;2023-10-08T00:36:33;3.50;;;2.00;;
52668;SDS011;59898;52.786;6.892;2023-10-08T00:39:54;2.55;;;1.85;;
52668;SDS011;59898;52.786;6.892;2023-10-08T00:43:32;3.35;;;1.83;;
52668;SDS011;59898;52.786;6.892;2023-10-08T00:46:58;2.53;;;1.90;;
52668;SDS011;59898;52.786;6.892;2023-10-08T00:50:21;3.42;;;2.03;;
52668;SDS011;59898;52.786;6.892;2023-10-08T00:53:57;2.92;;;2.20;;
52668;SDS011;59898;52.786;6.892;2023-10-08T00:57:30;3.10;;;2.00;;
52668;SDS011;59898;52.786;6.892;2023-10-08T01:00:55;2.92;;;2.22;;
52668;SDS011;59898;52.786;6.892;2023-10-08T01:04:20;4.40;;;2.60;;
52668;SDS011;59898;52.786;6.892;2023-10-08T01:07:47;3.70;;;2.90;;
52668;SDS011;59898;52.786;6.892;2023-10-08T01:14:38;3.30;;;2.40;;
52668;SDS011;59898;52.786;6.892;2023-10-08T01:18:02;3.90;;;3.05;;
52668;SDS011;59898;52.786;6.892;2023-10-08T01:21:29;3.20;;;2.70;;
52668;SDS011;59898;52.786;6.892;2023-10-08T01:24:59;4.47;;;3.17;;
52668;SDS011;59898;52.786;6.892;2023-10-08T01:28:23;5.63;;;2.88;;
52668;SDS011;59898;52.786;6.892;2023-10-08T01:31:48;3.70;;;2.92;;
52668;SDS011;59898;52.786;6.892;2023-10-08T01:35:09;3.70;;;2.70;;
52668;SDS011;59898;52.786;6.892;2023-10-08T01:42:03;4.60;;;2.67;;
52668;SDS011;59898;52.786;6.892;2023-10-08T01:45:26;3.00;;;2.40;;
52668;SDS011;59898;52.786;6.892;2023-10-08T01:48:46;3.50;;;2.53;;
52668;SDS011;59898;52.786;6.892;2023-10-08T01:52:13;3.63;;;2.53;;
52668;SDS011;59898;52.786;6.892;2023-10-08T01:55:40;3.33;;;2.40;;
52668;SDS011;59898;52.786;6.892;2023-10-08T01:59:08;4.30;;;2.63;;
52668;SDS011;59898;52.786;6.892;2023-10-08T02:02:30;4.45;;;2.20;;
52668;SDS011;59898;52.786;6.892;2023-10-08T02:05:50;2.78;;;2.20;;
52668;SDS011;59898;52.786;6.892;2023-10-08T02:12:35;3.97;;;2.83;;
52668;SDS011;59898;52.786;6.892;2023-10-08T02:15:56;3.55;;;2.55;;
52668;SDS011;59898;52.786;6.892;2023-10-08T02:19:18;4.05;;;2.63;;
52668;SDS011;59898;52.786;6.892;2023-10-08T02:22:42;4.50;;;2.50;;
52668;SDS011;59898;52.786;6.892;2023-10-08T02:26:02;3.42;;;2.72;;
52668;SDS011;59898;52.786;6.892;2023-10-08T02:29:25;5.93;;;2.70;;
52668;SDS011;59898;52.786;6.892;2023-10-08T02:32:46;3.00;;;2.45;;
52668;SDS011;59898;52.786;6.892;2023-10-08T02:36:07;3.30;;;2.50;;
52668;SDS011;59898;52.786;6.892;2023-10-08T02:39:30;4.93;;;2.28;;
52668;SDS011;59898;52.786;6.892;2023-10-08T02:42:52;3.58;;;2.38;;
52668;SDS011;59898;52.786;6.892;2023-10-08T02:46:18;3.97;;;2.17;;
52668;SDS011;59898;52.786;6.892;2023-10-08T02:49:39;3.92;;;2.40;;
52668;SDS011;59898;52.786;6.892;2023-10-08T02:53:02;4.28;;;2.13;;
52668;SDS011;59898;52.786;6.892;2023-10-08T02:56:31;3.78;;;2.42;;
52668;SDS011;59898;52.786;6.892;2023-10-08T02:59:52;3.13;;;2.08;;
52668;SDS011;59898;52.786;6.892;2023-10-08T03:03:14;3.38;;;2.47;;
52668;SDS011;59898;52.786;6.892;2023-10-08T03:06:35;2.50;;;2.00;;
52668;SDS011;59898;52.786;6.892;2023-10-08T03:09:58;2.72;;;2.28;;
52668;SDS011;59898;52.786;6.892;2023-10-08T03:13:37;3.15;;;2.20;;
52668;SDS011;59898;52.786;6.892;2023-10-08T03:16:58;4.07;;;2.28;;
52668;SDS011;59898;52.786;6.892;2023-10-08T03:20:27;2.90;;;1.85;;
52668;SDS011;59898;52.786;6.892;2023-10-08T03:23:49;2.55;;;1.80;;
52668;SDS011;59898;52.786;6.892;2023-10-08T03:27:11;4.13;;;2.20;;
52668;SDS011;59898;52.786;6.892;2023-10-08T03:30:40;3.80;;;2.40;;
52668;SDS011;59898;52.786;6.892;2023-10-08T03:34:12;3.90;;;2.40;;
52668;SDS011;59898;52.786;6.892;2023-10-08T03:37:38;3.92;;;2.00;;
52668;SDS011;59898;52.786;6.892;2023-10-08T03:41:06;4.47;;;2.13;;
52668;SDS011;59898;52.786;6.892;2023-10-08T03:44:29;2.75;;;1.95;;
52668;SDS011;59898;52.786;6.892;2023-10-08T03:47:49;2.55;;;1.98;;
52668;SDS011;59898;52.786;6.892;2023-10-08T03:51:25;3.42;;;1.90;;
52668;SDS011;59898;52.786;6.892;2023-10-08T03:54:47;3.70;;;2.20;;
52668;SDS011;59898;52.786;6.892;2023-10-08T03:58:08;2.60;;;1.92;;
52668;SDS011;59898;52.786;6.892;2023-10-08T04:01:49;5.95;;;2.25;;
52668;SDS011;59898;52.786;6.892;2023-10-08T04:05:14;8.15;;;2.13;;
52668;SDS011;59898;52.786;6.892;2023-10-08T04:08:39;4.10;;;2.08;;
52668;SDS011;59898;52.786;6.892;2023-10-08T04:12:02;2.58;;;2.03;;
52668;SDS011;59898;52.786;6.892;2023-10-08T04:15:30;4.82;;;2.00;;
52668;SDS011;59898;52.786;6.892;2023-10-08T04:18:51;4.97;;;2.00;;
52668;SDS011;59898;52.786;6.892;2023-10-08T04:22:15;4.22;;;2.33;;
52668;SDS011;59898;52.786;6.892;2023-10-08T04:25:39;4.15;;;2.03;;
52668;SDS011;59898;52.786;6.892;2023-10-08T04:32:22;5.25;;;2.75;;
52668;SDS011;59898;52.786;6.892;2023-10-08T04:35:44;5.55;;;2.83;;
52668;SDS011;59898;52.786;6.892;2023-10-08T04:39:08;5.20;;;2.58;;
52668;SDS011;59898;52.786;6.892;2023-10-08T04:42:43;4.30;;;2.45;;
52668;SDS011;59898;52.786;6.892;2023-10-08T04:46:08;6.95;;;2.72;;
52668;SDS011;59898;52.786;6.892;2023-10-08T04:49:39;3.67;;;2.30;;
52668;SDS011;59898;52.786;6.892;2023-10-08T04:53:05;4.00;;;2.13;;
52668;SDS011;59898;52.786;6.892;2023-10-08T04:56:29;5.18;;;2.40;;
52668;SDS011;59898;52.786;6.892;2023-10-08T04:59:49;5.18;;;3.03;;
52668;SDS011;59898;52.786;6.892;2023-10-08T05:03:10;5.70;;;2.70;;
52668;SDS011;59898;52.786;6.892;2023-10-08T05:06:34;5.50;;;2.90;;
52668;SDS011;59898;52.786;6.892;2023-10-08T05:09:55;6.10;;;2.80;;
52668;SDS011;59898;52.786;6.892;2023-10-08T05:13:28;4.77;;;2.30;;
52668;SDS011;59898;52.786;6.892;2023-10-08T05:16:55;3.65;;;2.10;;
52668;SDS011;59898;52.786;6.892;2023-10-08T05:20:31;3.33;;;2.30;;
52668;SDS011;59898;52.786;6.892;2023-10-08T05:23:52;5.55;;;2.50;;
52668;SDS011;59898;52.786;6.892;2023-10-08T05:27:34;5.57;;;2.40;;
52668;SDS011;59898;52.786;6.892;2023-10-08T05:31:16;4.15;;;2.50;;
52668;SDS011;59898;52.786;6.892;2023-10-08T05:34:56;2.90;;;1.90;;
52668;SDS011;59898;52.786;6.892;2023-10-08T05:38:36;4.00;;;1.92;;
52668;SDS011;59898;52.786;6.892;2023-10-08T05:42:09;2.63;;;2.05;;
52668;SDS011;59898;52.786;6.892;2023-10-08T05:45:48;5.90;;;2.45;;
52668;SDS011;59898;52.786;6.892;2023-10-08T05:49:28;6.75;;;2.88;;
52668;SDS011;59898;52.786;6.892;2023-10-08T05:52:49;9.40;;;2.88;;
52668;SDS011;59898;52.786;6.892;2023-10-08T05:56:18;5.15;;;2.20;;
52668;SDS011;59898;52.786;6.892;2023-10-08T05:59:48;4.40;;;2.15;;
52668;SDS011;59898;52.786;6.892;2023-10-08T06:03:15;4.65;;;2.40;;
52668;SDS011;59898;52.786;6.892;2023-10-08T06:06:54;4.78;;;2.20;;
52668;SDS011;59898;52.786;6.892;2023-10-08T06:10:32;5.43;;;3.25;;
52668;SDS011;59898;52.786;6.892;2023-10-08T06:13:52;10.27;;;2.85;;
52668;SDS011;59898;52.786;6.892;2023-10-08T06:17:20;5.13;;;2.38;;
52668;SDS011;59898;52.786;6.892;2023-10-08T06:20:58;5.32;;;2.20;;
52668;SDS011;59898;52.786;6.892;2023-10-08T06:24:21;4.65;;;2.08;;
52668;SDS011;59898;52.786;6.892;2023-10-08T06:27:41;6.53;;;2.13;;
52668;SDS011;59898;52.786;6.892;2023-10-08T06:34:28;3.95;;;2.10;;
52668;SDS011;59898;52.786;6.892;2023-10-08T06:37:49;3.92;;;2.00;;
52668;SDS011;59898;52.786;6.892;2023-10-08T06:41:15;5.82;;;2.35;;
52668;SDS011;59898;52.786;6.892;2023-10-08T06:44:37;4.32;;;2.05;;
52668;SDS011;59898;52.786;6.892;2023-10-08T06:48:02;8.10;;;2.08;;
52668;SDS011;59898;52.786;6.892;2023-10-08T06:51:26;7.22;;;2.78;;
52668;SDS011;59898;52.786;6.892;2023-10-08T06:54:46;6.80;;;3.10;;
52668;SDS011;59898;52.786;6.892;2023-10-08T06:58:07;6.00;;;3.58;;
52668;SDS011;59898;52.786;6.892;2023-10-08T07:01:29;5.00;;;2.53;;
52668;SDS011;59898;52.786;6.892;2023-10-08T07:04:58;7.78;;;3.50;;
52668;SDS011;59898;52.786;6.892;2023-10-08T07:08:22;8.23;;;2.85;;
52668;SDS011;59898;52.786;6.892;2023-10-08T07:11:43;9.48;;;3.45;;
52668;SDS011;59898;52.786;6.892;2023-10-08T07:15:05;8.82;;;2.83;;
52668;SDS011;59898;52.786;6.892;2023-10-08T07:18:32;7.05;;;2.85;;
52668;SDS011;59898;52.786;6.892;2023-10-08T07:21:53;6.90;;;2.40;;
52668;SDS011;59898;52.786;6.892;2023-10-08T07:25:23;6.65;;;2.83;;
52668;SDS011;59898;52.786;6.892;2023-10-08T07:28:44;7.18;;;2.40;;
52668;SDS011;59898;52.786;6.892;2023-10-08T07:32:06;7.37;;;2.23;;
52668;SDS011;59898;52.786;6.892;2023-10-08T07:35:32;5.30;;;1.95;;
52668;SDS011;59898;52.786;6.892;2023-10-08T07:38:58;8.27;;;2.30;;
52668;SDS011;59898;52.786;6.892;2023-10-08T07:42:23;4.53;;;2.42;;
52668;SDS011;59898;52.786;6.892;2023-10-08T07:45:45;5.47;;;2.20;;
52668;SDS011;59898;52.786;6.892;2023-10-08T07:49:05;7.82;;;2.90;;
52668;SDS011;59898;52.786;6.892;2023-10-08T07:52:26;3.50;;;1.80;;
52668;SDS011;59898;52.786;6.892;2023-10-08T07:55:46;5.80;;;2.63;;
52668;SDS011;59898;52.786;6.892;2023-10-08T07:59:10;8.57;;;2.20;;
52668;SDS011;59898;52.786;6.892;2023-10-08T08:02:34;10.43;;;2.47;;
52668;SDS011;59898;52.786;6.892;2023-10-08T08:05:55;3.90;;;2.10;;
52668;SDS011;59898;52.786;6.892;2023-10-08T08:09:16;5.40;;;2.08;;
52668;SDS011;59898;52.786;6.892;2023-10-08T08:12:40;5.65;;;2.25;;
52668;SDS011;59898;52.786;6.892;2023-10-08T08:16:01;13.63;;;6.10;;
52668;SDS011;59898;52.786;6.892;2023-10-08T08:19:36;9.07;;;3.72;;
52668;SDS011;59898;52.786;6.892;2023-10-08T08:22:57;7.47;;;2.50;;
52668;SDS011;59898;52.786;6.892;2023-10-08T08:26:26;8.43;;;2.08;;
52668;SDS011;59898;52.786;6.892;2023-10-08T08:29:53;7.45;;;2.13;;
52668;SDS011;59898;52.786;6.892;2023-10-08T08:33:15;5.45;;;2.38;;
52668;SDS011;59898;52.786;6.892;2023-10-08T08:36:42;5.20;;;1.98;;
52668;SDS011;59898;52.786;6.892;2023-10-08T08:40:06;5.22;;;2.30;;
52668;SDS011;59898;52.786;6.892;2023-10-08T08:43:37;4.80;;;1.88;;
52668;SDS011;59898;52.786;6.892;2023-10-08T08:47:04;6.13;;;2.15;;
52668;SDS011;59898;52.786;6.892;2023-10-08T08:50:26;6.97;;;3.08;;
52668;SDS011;59898;52.786;6.892;2023-10-08T08:53:47;13.50;;;3.28;;
52668;SDS011;59898;52.786;6.892;2023-10-08T08:57:10;4.50;;;2.25;;
52668;SDS011;59898;52.786;6.892;2023-10-08T09:00:33;5.75;;;2.33;;
52668;SDS011;59898;52.786;6.892;2023-10-08T09:04:01;6.22;;;2.72;;
52668;SDS011;59898;52.786;6.892;2023-10-08T09:07:25;6.82;;;2.10;;
52668;SDS011;59898;52.786;6.892;2023-10-08T09:10:46;4.88;;;2.30;;
52668;SDS011;59898;52.786;6.892;2023-10-08T09:14:12;8.77;;;2.10;;
52668;SDS011;59898;52.786;6.892;2023-10-08T09:17:33;10.27;;;2.60;;
52668;SDS011;59898;52.786;6.892;2023-10-08T09:20:53;12.40;;;3.13;;
52668;SDS011;59898;52.786;6.892;2023-10-08T09:24:18;10.40;;;2.50;;
52668;SDS011;59898;52.786;6.892;2023-10-08T09:27:41;10.85;;;2.78;;
52668;SDS011;59898;52.786;6.892;2023-10-08T09:31:09;6.43;;;2.80;;
52668;SDS011;59898;52.786;6.892;2023-10-08T09:34:32;6.78;;;2.72;;
52668;SDS011;59898;52.786;6.892;2023-10-08T09:37:53;10.25;;;2.58;;
52668;SDS011;59898;52.786;6.892;2023-10-08T09:41:14;8.93;;;3.00;;
52668;SDS011;59898;52.786;6.892;2023-10-08T09:44:35;6.25;;;2.40;;
52668;SDS011;59898;52.786;6.892;2023-10-08T09:47:55;11.18;;;3.28;;
52668;SDS011;59898;52.786;6.892;2023-10-08T09:51:16;8.32;;;2.63;;
52668;SDS011;59898;52.786;6.892;2023-10-08T09:58:24;8.05;;;3.42;;
52668;SDS011;59898;52.786;6.892;2023-10-08T10:01:46;8.15;;;3.85;;
52668;SDS011;59898;52.786;6.892;2023-10-08T10:05:10;5.07;;;3.08;;
52668;SDS011;59898;52.786;6.892;2023-10-08T10:08:31;6.38;;;3.22;;
52668;SDS011;59898;52.786;6.892;2023-10-08T10:11:55;5.25;;;2.20;;
52668;SDS011;59898;52.786;6.892;2023-10-08T10:15:20;6.22;;;3.47;;
52668;SDS011;59898;52.786;6.892;2023-10-08T10:18:43;9.25;;;2.72;;
52668;SDS011;59898;52.786;6.892;2023-10-08T10:22:10;6.97;;;3.00;;
52668;SDS011;59898;52.786;6.892;2023-10-08T10:25:34;6.28;;;2.25;;
52668;SDS011;59898;52.786;6.892;2023-10-08T10:32:35;10.10;;;3.25;;
52668;SDS011;59898;52.786;6.892;2023-10-08T10:35:56;9.80;;;2.90;;
52668;SDS011;59898;52.786;6.892;2023-10-08T10:39:17;9.32;;;3.25;;
52668;SDS011;59898;52.786;6.892;2023-10-08T10:42:47;5.18;;;2.15;;
52668;SDS011;59898;52.786;6.892;2023-10-08T10:46:13;7.55;;;2.80;;
52668;SDS011;59898;52.786;6.892;2023-10-08T10:49:52;13.18;;;4.25;;
52668;SDS011;59898;52.786;6.892;2023-10-08T10:53:17;8.77;;;2.83;;
52668;SDS011;59898;52.786;6.892;2023-10-08T10:56:38;9.70;;;2.67;;
52668;SDS011;59898;52.786;6.892;2023-10-08T11:00:03;6.40;;;2.33;;
52668;SDS011;59898;52.786;6.892;2023-10-08T11:03:44;6.80;;;2.40;;
52668;SDS011;59898;52.786;6.892;2023-10-08T11:07:07;7.45;;;2.38;;
52668;SDS011;59898;52.786;6.892;2023-10-08T11:10:28;7.18;;;3.10;;
52668;SDS011;59898;52.786;6.892;2023-10-08T11:13:59;5.72;;;3.03;;
52668;SDS011;59898;52.786;6.892;2023-10-08T11:17:23;12.70;;;3.22;;
52668;SDS011;59898;52.786;6.892;2023-10-08T11:20:46;9.75;;;3.33;;
52668;SDS011;59898;52.786;6.892;2023-10-08T11:24:14;8.52;;;2.97;;
52668;SDS011;59898;52.786;6.892;2023-10-08T11:27:45;8.57;;;3.47;;
52668;SDS011;59898;52.786;6.892;2023-10-08T11:31:06;8.52;;;4.35;;
52668;SDS011;59898;52.786;6.892;2023-10-08T11:34:33;9.07;;;2.90;;
52668;SDS011;59898;52.786;6.892;2023-10-08T11:37:59;7.22;;;3.03;;
52668;SDS011;59898;52.786;6.892;2023-10-08T11:41:23;9.23;;;3.35;;
52668;SDS011;59898;52.786;6.892;2023-10-08T11:44:47;10.15;;;2.53;;
52668;SDS011;59898;52.786;6.892;2023-10-08T11:48:08;11.63;;;2.90;;
52668;SDS011;59898;52.786;6.892;2023-10-08T11:51:37;7.07;;;2.75;;
52668;SDS011;59898;52.786;6.892;2023-10-08T11:55:00;7.32;;;3.13;;
52668;SDS011;59898;52.786;6.892;2023-10-08T11:58:21;7.05;;;2.88;;
52668;SDS011;59898;52.786;6.892;2023-10-08T12:01:55;6.78;;;2.78;;
52668;SDS011;59898;52.786;6.892;2023-10-08T12:05:16;8.55;;;3.70;;
52668;SDS011;59898;52.786;6.892;2023-10-08T12:08:40;6.70;;;2.63;;
52668;SDS011;59898;52.786;6.892;2023-10-08T12:12:00;6.15;;;2.80;;
52668;SDS011;59898;52.786;6.892;2023-10-08T12:15:24;6.75;;;3.00;;
52668;SDS011;59898;52.786;6.892;2023-10-08T12:18:54;8.77;;;2.60;;
52668;SDS011;59898;52.786;6.892;2023-10-08T12:22:18;8.20;;;2.38;;
52668;SDS011;59898;52.786;6.892;2023-10-08T12:25:39;8.38;;;2.55;;
52668;SDS011;59898;52.786;6.892;2023-10-08T12:29:06;6.50;;;2.70;;
52668;SDS011;59898;52.786;6.892;2023-10-08T12:32:28;8.75;;;2.70;;
52668;SDS011;59898;52.786;6.892;2023-10-08T12:35:50;10.30;;;3.25;;
52668;SDS011;59898;52.786;6.892;2023-10-08T12:39:13;12.73;;;2.78;;
52668;SDS011;59898;52.786;6.892;2023-10-08T12:42:36;9.23;;;2.60;;
52668;SDS011;59898;52.786;6.892;2023-10-08T12:46:04;4.68;;;2.70;;
52668;SDS011;59898;52.786;6.892;2023-10-08T12:49:30;7.10;;;3.05;;
52668;SDS011;59898;52.786;6.892;2023-10-08T12:52:53;5.28;;;2.42;;
52668;SDS011;59898;52.786;6.892;2023-10-08T12:56:17;5.72;;;2.22;;
52668;SDS011;59898;52.786;6.892;2023-10-08T12:59:41;5.25;;;2.30;;
52668;SDS011;59898;52.786;6.892;2023-10-08T13:03:05;7.70;;;2.78;;
52668;SDS011;59898;52.786;6.892;2023-10-08T13:06:31;6.38;;;2.33;;
52668;SDS011;59898;52.786;6.892;2023-10-08T13:09:52;8.60;;;2.88;;
52668;SDS011;59898;52.786;6.892;2023-10-08T13:13:12;10.55;;;4.07;;
52668;SDS011;59898;52.786;6.892;2023-10-08T13:16:33;5.63;;;2.15;;
52668;SDS011;59898;52.786;6.892;2023-10-08T13:19:57;6.10;;;2.78;;
52668;SDS011;59898;52.786;6.892;2023-10-08T13:23:17;4.72;;;2.10;;
52668;SDS011;59898;52.786;6.892;2023-10-08T13:26:40;5.72;;;2.40;;
52668;SDS011;59898;52.786;6.892;2023-10-08T13:30:02;6.30;;;2.58;;
52668;SDS011;59898;52.786;6.892;2023-10-08T13:33:25;8.40;;;2.90;;
52668;SDS011;59898;52.786;6.892;2023-10-08T13:36:46;9.30;;;3.17;;
52668;SDS011;59898;52.786;6.892;2023-10-08T13:43:30;6.18;;;2.83;;
52668;SDS011;59898;52.786;6.892;2023-10-08T13:46:54;4.72;;;1.95;;
52668;SDS011;59898;52.786;6.892;2023-10-08T13:50:17;5.47;;;2.03;;
52668;SDS011;59898;52.786;6.892;2023-10-08T13:53:38;9.10;;;3.45;;
52668;SDS011;59898;52.786;6.892;2023-10-08T13:57:05;8.07;;;2.30;;
52668;SDS011;59898;52.786;6.892;2023-10-08T14:00:31;6.00;;;2.58;;
52668;SDS011;59898;52.786;6.892;2023-10-08T14:03:56;7.43;;;2.42;;
52668;SDS011;59898;52.786;6.892;2023-10-08T14:07:24;5.25;;;2.10;;
52668;SDS011;59898;52.786;6.892;2023-10-08T14:14:08;5.95;;;3.22;;
52668;SDS011;59898;52.786;6.892;2023-10-08T14:17:31;6.95;;;2.25;;
52668;SDS011;59898;52.786;6.892;2023-10-08T14:21:02;4.20;;;1.98;;
52668;SDS011;59898;52.786;6.892;2023-10-08T14:24:30;5.68;;;2.45;;
52668;SDS011;59898;52.786;6.892;2023-10-08T14:27:55;6.70;;;3.10;;
52668;SDS011;59898;52.786;6.892;2023-10-08T14:31:24;6.88;;;2.70;;
52668;SDS011;59898;52.786;6.892;2023-10-08T14:34:46;5.40;;;2.80;;
52668;SDS011;59898;52.786;6.892;2023-10-08T14:38:07;6.95;;;2.53;;
52668;SDS011;59898;52.786;6.892;2023-10-08T14:41:46;5.28;;;2.40;;
52668;SDS011;59898;52.786;6.892;2023-10-08T14:45:26;6.90;;;2.53;;
52668;SDS011;59898;52.786;6.892;2023-10-08T14:48:51;5.03;;;2.65;;
52668;SDS011;59898;52.786;6.892;2023-10-08T14:52:12;3.95;;;2.13;;
52668;SDS011;59898;52.786;6.892;2023-10-08T14:55:34;6.65;;;2.40;;
52668;SDS011;59898;52.786;6.892;2023-10-08T15:02:16;5.25;;;2.22;;
52668;SDS011;59898;52.786;6.892;2023-10-08T15:05:36;8.25;;;2.80;;
52668;SDS011;59898;52.786;6.892;2023-10-08T15:08:57;4.78;;;2.80;;
52668;SDS011;59898;52.786;6.892;2023-10-08T15:12:18;6.78;;;2.35;;
52668;SDS011;59898;52.786;6.892;2023-10-08T15:15:42;6.95;;;2.67;;
52668;SDS011;59898;52.786;6.892;2023-10-08T15:19:03;7.80;;;2.90;;
52668;SDS011;59898;52.786;6.892;2023-10-08T15:22:26;8.85;;;3.38;;
52668;SDS011;59898;52.786;6.892;2023-10-08T15:25:46;9.20;;;3.08;;
52668;SDS011;59898;52.786;6.892;2023-10-08T15:29:07;6.55;;;2.65;;
52668;SDS011;59898;52.786;6.892;2023-10-08T15:32:27;10.10;;;3.08;;
52668;SDS011;59898;52.786;6.892;2023-10-08T15:35:48;6.93;;;2.97;;
52668;SDS011;59898;52.786;6.892;2023-10-08T15:39:08;9.23;;;3.83;;
52668;SDS011;59898;52.786;6.892;2023-10-08T15:42:33;9.30;;;3.00;;
52668;SDS011;59898;52.786;6.892;2023-10-08T15:45:57;6.07;;;2.90;;
52668;SDS011;59898;52.786;6.892;2023-10-08T15:49:18;8.85;;;2.92;;
52668;SDS011;59898;52.786;6.892;2023-10-08T15:52:39;8.15;;;2.60;;
52668;SDS011;59898;52.786;6.892;2023-10-08T15:56:00;7.18;;;2.70;;
52668;SDS011;59898;52.786;6.892;2023-10-08T15:59:21;5.72;;;2.20;;
52668;SDS011;59898;52.786;6.892;2023-10-08T16:02:41;5.22;;;2.45;;
52668;SDS011;59898;52.786;6.892;2023-10-08T16:09:25;5.45;;;2.83;;
52668;SDS011;59898;52.786;6.892;2023-10-08T16:12:46;6.05;;;2.75;;
52668;SDS011;59898;52.786;6.892;2023-10-08T16:16:07;7.63;;;3.13;;
52668;SDS011;59898;52.786;6.892;2023-10-08T16:19:30;5.43;;;2.80;;
52668;SDS011;59898;52.786;6.892;2023-10-08T16:22:52;7.78;;;3.20;;
52668;SDS011;59898;52.786;6.892;2023-10-08T16:26:13;7.32;;;3.75;;
52668;SDS011;59898;52.786;6.892;2023-10-08T16:29:33;10.07;;;3.38;;
52668;SDS011;59898;52.786;6.892;2023-10-08T16:32:56;11.85;;;4.13;;
52668;SDS011;59898;52.786;6.892;2023-10-08T16:36:20;7.80;;;3.22;;
52668;SDS011;59898;52.786;6.892;2023-10-08T16:39:40;6.13;;;3.28;;
52668;SDS011;59898;52.786;6.892;2023-10-08T16:43:01;5.85;;;3.40;;
52668;SDS011;59898;52.786;6.892;2023-10-08T16:46:21;8.82;;;3.53;;
52668;SDS011;59898;52.786;6.892;2023-10-08T16:49:42;6.35;;;3.42;;
52668;SDS011;59898;52.786;6.892;2023-10-08T16:53:03;7.85;;;3.33;;
52668;SDS011;59898;52.786;6.892;2023-10-08T16:56:23;6.93;;;2.58;;
52668;SDS011;59898;52.786;6.892;2023-10-08T16:59:44;8.55;;;3.17;;
52668;SDS011;59898;52.786;6.892;2023-10-08T17:03:06;8.90;;;3.10;;
52668;SDS011;59898;52.786;6.892;2023-10-08T17:06:26;6.47;;;3.65;;
52668;SDS011;59898;52.786;6.892;2023-10-08T17:09:47;6.70;;;3.00;;
52668;SDS011;59898;52.786;6.892;2023-10-08T17:13:07;5.68;;;3.33;;
52668;SDS011;59898;52.786;6.892;2023-10-08T17:19:51;7.05;;;3.90;;
52668;SDS011;59898;52.786;6.892;2023-10-08T17:23:12;5.60;;;3.72;;
52668;SDS011;59898;52.786;6.892;2023-10-08T17:26:35;7.72;;;3.20;;
52668;SDS011;59898;52.786;6.892;2023-10-08T17:29:56;7.45;;;3.33;;
52668;SDS011;59898;52.786;6.892;2023-10-08T17:33:17;8.23;;;3.60;;
52668;SDS011;59898;52.786;6.892;2023-10-08T17:36:37;6.47;;;3.92;;
52668;SDS011;59898;52.786;6.892;2023-10-08T17:39:58;8.65;;;3.70;;
52668;SDS011;59898;52.786;6.892;2023-10-08T17:43:18;7.82;;;4.05;;
52668;SDS011;59898;52.786;6.892;2023-10-08T17:46:40;10.50;;;3.92;;
52668;SDS011;59898;52.786;6.892;2023-10-08T17:50:04;12.88;;;4.88;;
52668;SDS011;59898;52.786;6.892;2023-10-08T17:53:25;4.78;;;3.50;;
52668;SDS011;59898;52.786;6.892;2023-10-08T17:56:48;10.75;;;4.38;;
52668;SDS011;59898;52.786;6.892;2023-10-08T18:00:09;6.60;;;3.65;;
52668;SDS011;59898;52.786;6.892;2023-10-08T18:03:30;11.85;;;5.60;;
52668;SDS011;59898;52.786;6.892;2023-10-08T18:06:51;7.50;;;3.40;;
52668;SDS011;59898;52.786;6.892;2023-10-08T18:10:12;5.97;;;3.72;;
52668;SDS011;59898;52.786;6.892;2023-10-08T18:13:34;7.90;;;4.57;;
52668;SDS011;59898;52.786;6.892;2023-10-08T18:17:00;10.35;;;4.55;;
52668;SDS011;59898;52.786;6.892;2023-10-08T18:20:21;8.82;;;4.03;;
52668;SDS011;59898;52.786;6.892;2023-10-08T18:23:54;9.05;;;4.70;;
52668;SDS011;59898;52.786;6.892;2023-10-08T18:27:16;10.05;;;5.03;;
52668;SDS011;59898;52.786;6.892;2023-10-08T18:30:36;7.20;;;5.53;;
52668;SDS011;59898;52.786;6.892;2023-10-08T18:33:57;9.07;;;5.43;;
52668;SDS011;59898;52.786;6.892;2023-10-08T18:37:18;9.10;;;5.78;;
52668;SDS011;59898;52.786;6.892;2023-10-08T18:40:38;11.55;;;5.55;;
52668;SDS011;59898;52.786;6.892;2023-10-08T18:43:59;8.25;;;5.25;;
52668;SDS011;59898;52.786;6.892;2023-10-08T18:47:19;8.85;;;5.50;;
52668;SDS011;59898;52.786;6.892;2023-10-08T18:50:42;10.43;;;5.72;;
52668;SDS011;59898;52.786;6.892;2023-10-08T18:54:04;7.32;;;4.60;;
52668;SDS011;59898;52.786;6.892;2023-10-08T18:57:26;7.90;;;4.82;;
52668;SDS011;59898;52.786;6.892;2023-10-08T19:00:47;13.93;;;4.97;;
52668;SDS011;59898;52.786;6.892;2023-10-08T19:04:08;7.43;;;5.28;;
52668;SDS011;59898;52.786;6.892;2023-10-08T19:07:30;9.00;;;5.40;;
52668;SDS011;59898;52.786;6.892;2023-10-08T19:10:52;12.15;;;4.75;;
52668;SDS011;59898;52.786;6.892;2023-10-08T19:14:14;7.60;;;4.70;;
52668;SDS011;59898;52.786;6.892;2023-10-08T19:17:34;8.40;;;4.57;;
52668;SDS011;59898;52.786;6.892;2023-10-08T19:20:56;11.13;;;5.47;;
52668;SDS011;59898;52.786;6.892;2023-10-08T19:24:17;8.32;;;5.75;;
52668;SDS011;59898;52.786;6.892;2023-10-08T19:27:38;9.52;;;5.85;;
52668;SDS011;59898;52.786;6.892;2023-10-08T19:30:59;10.00;;;5.60;;
52668;SDS011;59898;52.786;6.892;2023-10-08T19:34:23;8.93;;;5.53;;
52668;SDS011;59898;52.786;6.892;2023-10-08T19:37:44;10.13;;;5.40;;
52668;SDS011;59898;52.786;6.892;2023-10-08T19:41:15;6.57;;;5.07;;
52668;SDS011;59898;52.786;6.892;2023-10-08T19:44:37;9.85;;;5.55;;
52668;SDS011;59898;52.786;6.892;2023-10-08T19:47:57;7.95;;;4.65;;
52668;SDS011;59898;52.786;6.892;2023-10-08T19:51:19;11.65;;;5.95;;
52668;SDS011;59898;52.786;6.892;2023-10-08T19:54:41;10.85;;;4.72;;
52668;SDS011;59898;52.786;6.892;2023-10-08T19:58:02;6.55;;;5.20;;
52668;SDS011;59898;52.786;6.892;2023-10-08T20:01:23;6.80;;;4.13;;
52668;SDS011;59898;52.786;6.892;2023-10-08T20:04:44;8.18;;;5.10;;
52668;SDS011;59898;52.786;6.892;2023-10-08T20:08:06;6.28;;;4.25;;
52668;SDS011;59898;52.786;6.892;2023-10-08T20:11:26;5.38;;;3.67;;
52668;SDS011;59898;52.786;6.892;2023-10-08T20:14:47;7.07;;;3.97;;
52668;SDS011;59898;52.786;6.892;2023-10-08T20:18:11;6.47;;;3.45;;
52668;SDS011;59898;52.786;6.892;2023-10-08T20:21:31;6.15;;;3.63;;
52668;SDS011;59898;52.786;6.892;2023-10-08T20:24:52;8.65;;;3.38;;
52668;SDS011;59898;52.786;6.892;2023-10-08T20:28:13;9.82;;;3.47;;
52668;SDS011;59898;52.786;6.892;2023-10-08T20:31:35;5.90;;;3.20;;
52668;SDS011;59898;52.786;6.892;2023-10-08T20:34:56;5.97;;;3.15;;
52668;SDS011;59898;52.786;6.892;2023-10-08T20:38:17;8.23;;;2.97;;
52668;SDS011;59898;52.786;6.892;2023-10-08T20:41:38;11.00;;;3.13;;
52668;SDS011;59898;52.786;6.892;2023-10-08T20:44:58;5.07;;;2.72;;
52668;SDS011;59898;52.786;6.892;2023-10-08T20:48:19;9.60;;;3.15;;
52668;SDS011;59898;52.786;6.892;2023-10-08T20:51:39;5.18;;;2.58;;
52668;SDS011;59898;52.786;6.892;2023-10-08T20:55:01;3.78;;;2.80;;
52668;SDS011;59898;52.786;6.892;2023-10-08T20:58:24;5.35;;;2.42;;
52668;SDS011;59898;52.786;6.892;2023-10-08T21:01:47;5.60;;;2.40;;
52668;SDS011;59898;52.786;6.892;2023-10-08T21:05:07;4.00;;;2.47;;
52668;SDS011;59898;52.786;6.892;2023-10-08T21:08:28;4.47;;;2.20;;